Latest Weather Observations for Flinders Reef

IDQ60801

Issued at 1:32 am EST Monday 20 April 2015 (issued every 30 minutes, with the page automatically refreshed every 10 minutes)

About weather observations | Map of weather stations | Latest weather observations for QLD | Other Formats
Station Details ID: 200783 Name: FLINDERS REEF Lat: -17.72 Lon: 148.45 Height: 2.6 m
Data from the previous 72 hours. | See also: Recent months at Flinders Reef
Date/Time
EST
Temp
°C
App
Temp
°C
Dew
Point
Rel
Hum
%
Delta-T
°C
Wind Press
QNH
hPa
Press
MSL
hPa
Rain
since 9 am
mm
Dir
 
Spd
km/h
Gust
km/h
Spd
kts
Gust
kts
20/01:30am - - - - - ESE 33 37 18 20 1013.9 - -
20/01:24am - - - - - ESE 33 37 18 20 1014.0 1013.9 -
20/01:00am - - - - - SE 32 35 17 19 1014.4 - -
20/12:30am - - - - - SE 30 35 16 19 1014.7 - -
20/12:24am - - - - - ESE 30 - 16 - - 1014.7 -
20/12:00am - - - - - ESE 39 46 21 25 1015.0 - -
 
Date/Time
EST
Temp
°C
App
Temp
°C
Dew
Point
Rel
Hum
%
Delta-T
°C
Wind Press
QNH
hPa
Press
MSL
hPa
Rain
since 9 am
mm
Dir
 
Spd
km/h
Gust
km/h
Spd
kts
Gust
kts
19/11:30pm - - - - - ESE 39 44 21 24 1015.1 - -
19/11:24pm - - - - - E 30 - 16 - - 1015.0 -
19/11:00pm - - - - - E 28 35 15 19 1015.2 - -
19/10:30pm - - - - - E 33 37 18 20 1015.2 - -
19/10:24pm - - - - - ESE 35 - 19 - - 1015.1 -
19/10:00pm - - - - - ESE 39 50 21 27 1015.1 - -
19/09:30pm - - - - - SE 37 43 20 23 1014.9 - -
19/09:24pm - - - - - SE 39 - 21 - - 1014.8 -
19/09:00pm - - - - - SE 37 43 20 23 1014.8 - -
19/08:30pm - - - - - SE 37 41 20 22 1014.4 - -
19/08:24pm - - - - - SE 37 - 20 - - 1014.2 -
19/08:00pm - - - - - SE 35 43 19 23 1014.2 - -
19/07:30pm - - - - - SSE 35 41 19 22 1013.8 - -
19/07:24pm - - - - - SSE 35 - 19 - - 1013.7 -
19/07:00pm - - - - - SE 32 39 17 21 1013.6 - -
19/06:30pm - - - - - SE 33 37 18 20 1013.5 - -
19/06:24pm - - - - - SE 32 - 17 - - 1013.2 -
19/06:00pm - - - - - SE 32 35 17 19 1013.2 - -
19/05:30pm - - - - - SE 32 37 17 20 1013.1 - -
19/05:24pm - - - - - SE 32 - 17 - - 1012.9 -
19/05:00pm - - - - - SE 32 35 17 19 1012.9 - -
19/04:30pm - - - - - SSE 32 33 17 18 1012.9 - -
19/04:24pm - - - - - SSE 30 - 16 - - 1012.8 -
19/04:00pm - - - - - SSE 30 33 16 18 1012.9 - -
19/03:30pm - - - - - SSE 28 32 15 17 1013.0 - -
19/03:24pm - - - - - SSE 28 - 15 - - 1012.9 -
19/03:00pm - - - - - SSE 26 30 14 16 1012.9 - -
19/02:30pm - - - - - SSE 26 30 14 16 1012.8 - -
19/02:24pm - - - - - SSE 26 - 14 - - 1012.7 -
19/02:00pm - - - - - SE 26 30 14 16 1012.9 - -
19/01:30pm - - - - - SE 26 30 14 16 1013.3 - -
19/01:24pm - - - - - SE 26 - 14 - - 1013.3 -
19/01:00pm - - - - - SE 28 32 15 17 1013.7 - -
19/12:30pm - - - - - ESE 28 32 15 17 1014.0 - -
19/12:24pm - - - - - ESE 28 - 15 - - 1014.0 -
19/12:00pm - - - - - ESE 32 35 17 19 1014.4 - -
19/11:30am - - - - - ESE 32 35 17 19 1014.7 - -
19/11:24am - - - - - ESE 32 - 17 - - 1014.8 -
19/11:00am - - - - - ESE 32 37 17 20 1015.4 - -
19/10:30am - - - - - ESE 33 39 18 21 1015.5 - -
19/10:24am - - - - - ESE 33 - 18 - - 1015.5 -
19/10:00am - - - - - ESE 33 37 18 20 1015.9 - -
19/09:30am - - - - - ESE 35 39 19 21 1015.7 - -
19/09:24am - - - - - ESE 35 - 19 - - 1015.6 -
19/09:00am - - - - - ESE 35 43 19 23 1015.6 - -
19/08:30am - - - - - ESE 35 41 19 22 1015.2 - -
19/08:24am - - - - - ESE 37 - 20 - - 1015.0 -
19/08:00am - - - - - ESE 37 43 20 23 1014.8 - -
19/07:30am - - - - - ESE 37 44 20 24 1014.6 - -
19/07:24am - - - - - ESE 39 - 21 - - 1014.4 -
19/07:00am - - - - - ESE 37 43 20 23 1014.3 - -
19/06:30am - - - - - ESE 39 44 21 24 1014.0 - -
19/06:24am - - - - - ESE 39 - 21 - - 1013.8 -
19/06:00am - - - - - ESE 37 44 20 24 1013.6 - -
19/05:30am - - - - - ESE 37 43 20 23 1013.1 - -
19/05:24am - - - - - ESE 37 - 20 - - 1012.9 -
19/05:00am - - - - - ESE 37 44 20 24 1012.9 - -
19/04:30am - - - - - ESE 39 46 21 25 1012.8 - -
19/04:24am - - - - - ESE 41 - 22 - - 1012.8 -
19/04:00am - - - - - ESE 41 46 22 25 1012.9 - -
19/03:30am - - - - - ESE 39 46 21 25 1012.9 - -
19/03:24am - - - - - ESE 39 - 21 - - 1012.9 -
19/03:00am - - - - - ESE 37 43 20 23 1013.2 - -
19/02:30am - - - - - ESE 39 43 21 23 1013.6 - -
19/02:24am - - - - - ESE 37 - 20 - - 1013.5 -
19/02:00am - - - - - ESE 35 43 19 23 1013.9 - -
19/01:30am - - - - - E 37 43 20 23 1014.3 - -
19/01:24am - - - - - E 37 - 20 - - 1014.3 -
19/01:00am - - - - - E 39 46 21 25 1014.6 - -
19/12:30am - - - - - E 39 46 21 25 1015.0 - -
19/12:24am - - - - - E 39 - 21 - - 1015.0 -
19/12:00am - - - - - E 37 44 20 24 1015.2 - -
 
Date/Time
EST
Temp
°C
App
Temp
°C
Dew
Point
Rel
Hum
%
Delta-T
°C
Wind Press
QNH
hPa
Press
MSL
hPa
Rain
since 9 am
mm
Dir
 
Spd
km/h
Gust
km/h
Spd
kts
Gust
kts
18/11:30pm - - - - - E 39 43 21 23 1015.2 - -
18/11:24pm - - - - - E 37 - 20 - - 1015.1 -
18/11:00pm - - - - - E 37 43 20 23 1015.4 - -
18/10:30pm - - - - - E 37 41 20 22 1015.3 - -
18/10:24pm - - - - - E 35 - 19 - - 1015.2 -
18/10:00pm - - - - - E 37 43 20 23 1015.3 - -
18/09:30pm - - - - - ESE 32 39 17 21 1015.4 - -
18/09:24pm - - - - - ESE 30 - 16 - - 1015.3 -
18/09:00pm - - - - - ESE 33 37 18 20 1015.3 - -
18/08:30pm - - - - - E 35 39 19 21 1015.1 - -
18/08:24pm - - - - - E 33 - 18 - - 1015.0 -
18/08:00pm - - - - - ESE 33 37 18 20 1015.0 - -
18/07:30pm - - - - - ESE 33 39 18 21 1014.5 - -
18/07:24pm - - - - - ESE 33 - 18 - - 1014.3 -
18/07:00pm - - - - - ESE 35 39 19 21 1014.2 - -
18/06:30pm - - - - - ESE 35 41 19 22 1013.7 - -
18/06:24pm - - - - - ESE 37 - 20 - - 1013.5 -
18/06:00pm - - - - - ESE 35 41 19 22 1013.5 - -
18/05:30pm - - - - - ESE 37 43 20 23 1013.1 - -
18/05:24pm - - - - - ESE 37 - 20 - - 1012.8 -
18/05:00pm - - - - - ESE 35 43 19 23 1012.8 - -
18/04:30pm - - - - - ESE 37 43 20 23 1012.8 - -
18/04:24pm - - - - - ESE 37 - 20 - - 1012.6 -
18/04:00pm - - - - - ESE 39 43 21 23 1012.6 - -
18/03:30pm - - - - - ESE 37 43 20 23 1012.5 - -
18/03:24pm - - - - - E 39 - 21 - - 1012.5 -
18/03:00pm - - - - - ESE 39 46 21 25 1012.6 - -
18/02:30pm - - - - - ESE 37 43 20 23 1013.0 - -
18/02:24pm - - - - - ESE 37 - 20 - - 1012.9 -
18/02:00pm - - - - - ESE 37 41 20 22 1013.3 - -
18/01:30pm - - - - - ESE 35 43 19 23 1013.6 - -
18/01:24pm - - - - - ESE 37 - 20 - - 1013.5 -
18/01:00pm - - - - - ESE 41 48 22 26 1014.0 - -
18/12:30pm - - - - - ESE 35 41 19 22 1014.3 - -
18/12:24pm - - - - - ESE 35 - 19 - - 1014.3 -
18/12:00pm - - - - - ESE 33 39 18 21 1014.7 - -
18/11:30am - - - - - ESE 35 41 19 22 1014.9 - -
18/11:24am - - - - - ESE 37 - 20 - - 1014.8 -
18/11:00am - - - - - ESE 39 44 21 24 1015.2 - -
18/10:30am - - - - - ESE 41 46 22 25 1015.4 - -
18/10:24am - - - - - ESE 43 - 23 - - 1015.4 -
18/10:00am - - - - - ESE 41 46 22 25 1015.5 - -
18/09:30am - - - - - ESE 41 48 22 26 1015.6 - -
18/09:24am - - - - - ESE 43 - 23 - - 1015.4 -
18/09:00am - - - - - E 43 50 23 27 1015.1 - -
18/08:30am - - - - - E 44 52 24 28 1014.5 - -
18/08:24am - - - - - E 44 - 24 - - 1014.3 -
18/08:00am - - - - - E 43 50 23 27 1014.0 - -
18/07:30am - - - - - E 41 46 22 25 1014.0 - -
18/07:24am - - - - - E 41 - 22 - - 1013.8 -
18/07:00am - - - - - E 39 48 21 26 1013.7 - -
18/06:30am - - - - - E 41 50 22 27 1013.6 - -
18/06:24am - - - - - ESE 43 - 23 - - 1013.4 -
18/06:00am - - - - - ESE 41 46 22 25 1013.5 - -
18/05:30am - - - - - ESE 37 43 20 23 1013.3 - -
18/05:24am - - - - - ESE 39 - 21 - - 1013.2 -
18/05:00am - - - - - ESE 41 46 22 25 1013.0 - -
18/04:30am - - - - - E 43 48 23 26 1012.7 - -
18/04:24am - - - - - ESE 41 - 22 - - 1012.6 -
18/04:00am - - - - - E 41 46 22 25 1012.5 - -
18/03:30am - - - - - ESE 37 43 20 23 1012.4 - -
18/03:24am - - - - - ESE 33 - 18 - - 1012.4 -
18/03:00am - - - - - ESE 35 44 19 24 1012.8 - -
18/02:30am - - - - - ESE 39 46 21 25 1012.9 - -
18/02:24am - - - - - ESE 39 - 21 - - 1012.9 -
18/02:00am - - - - - ESE 37 44 20 24 1013.2 - -
18/01:30am - - - - - E 41 50 22 27 1013.7 - -
18/01:24am - - - - - E 46 - 25 - - 1013.7 -
18/01:06am - - - - - E 41 59 22 32 1013.8 - -
18/01:00am - - - - - E 35 43 19 23 1013.9 - -
18/12:55am - - - - - ESE 33 39 18 21 1014.1 - -
18/12:30am - - - - - E 46 57 25 31 1014.2 - -
18/12:27am - - - - - E 48 57 26 31 1014.3 - -
18/12:24am - - - - - E 48 - 26 - - 1014.1 -
18/12:00am - - - - - ESE 37 43 20 23 1014.4 - -
 
Date/Time
EST
Temp
°C
App
Temp
°C
Dew
Point
Rel
Hum
%
Delta-T
°C
Wind Press
QNH
hPa
Press
MSL
hPa
Rain
since 9 am
mm
Dir
 
Spd
km/h
Gust
km/h
Spd
kts
Gust
kts
17/11:30pm - - - - - E 39 46 21 25 1014.4 - -
17/11:24pm - - - - - ESE 43 - 23 - - 1014.2 -
17/11:00pm - - - - - ESE 43 48 23 26 1014.5 - -
17/10:30pm - - - - - ESE 39 50 21 27 1014.6 - -
17/10:24pm - - - - - ESE 39 - 21 - - 1014.6 -
17/10:00pm - - - - - ESE 37 43 20 23 1014.8 - -
17/09:30pm - - - - - ESE 43 50 23 27 1014.7 - -
17/09:24pm - - - - - ESE 41 - 22 - - 1014.6 -
17/09:00pm - - - - - ESE 44 52 24 28 1014.6 - -
17/08:30pm - - - - - ESE 41 46 22 25 1014.4 - -
17/08:24pm - - - - - ESE 43 - 23 - - 1014.2 -
17/08:00pm - - - - - ESE 43 48 23 26 1014.1 - -
17/07:30pm - - - - - ESE 41 48 22 26 1014.0 - -
17/07:24pm - - - - - ESE 39 - 21 - - 1013.9 -
17/07:00pm - - - - - ESE 37 44 20 24 1013.7 - -
17/06:30pm - - - - - ESE 37 44 20 24 1013.6 - -
17/06:24pm - - - - - ESE 41 - 22 - - 1013.5 -
17/06:00pm - - - - - ESE 44 52 24 28 1013.4 - -
17/05:30pm - - - - - ESE 43 50 23 27 1013.2 - -
17/05:24pm - - - - - ESE 43 - 23 - - 1013.1 -
17/05:00pm - - - - - ESE 41 46 22 25 1013.0 - -
17/04:30pm - - - - - ESE 37 46 20 25 1012.9 - -
17/04:24pm - - - - - ESE 37 - 20 - - 1012.7 -
17/04:00pm - - - - - ESE 41 46 22 25 1012.7 - -
17/03:30pm - - - - - ESE 41 44 22 24 1012.7 - -
17/03:24pm - - - - - ESE 41 - 22 - - 1012.5 -
17/03:00pm - - - - - ESE 43 50 23 27 1012.8 - -
17/02:30pm - - - - - ESE 41 46 22 25 1013.0 - -
17/02:24pm - - - - - SE 41 - 22 - - 1012.9 -
17/02:00pm - - - - - ESE 41 48 22 26 1013.1 - -
17/01:30pm - - - - - ESE 41 46 22 25 1013.5 - -
17/01:24pm - - - - - ESE 41 - 22 - - 1013.5 -
17/01:00pm - - - - - ESE 39 46 21 25 1013.9 - -
17/12:30pm - - - - - ESE 39 44 21 24 1014.4 - -
17/12:24pm - - - - - ESE 41 - 22 - - 1014.4 -
17/12:00pm - - - - - ESE 39 44 21 24 1014.8 - -
17/11:30am - - - - - ESE 39 46 21 25 1015.2 - -
17/11:24am - - - - - ESE 39 - 21 - - 1015.2 -
17/11:00am - - - - - ESE 41 46 22 25 1015.8 - -
17/10:30am - - - - - ESE 43 46 23 25 1016.1 - -
17/10:24am - - - - - ESE 43 - 23 - - 1016.1 -
17/10:00am - - - - - ESE 43 50 23 27 1016.4 - -
17/09:30am - - - - - ESE 41 48 22 26 1016.6 - -
17/09:24am - - - - - ESE 41 - 22 - - 1016.5 -
17/09:00am - - - - - ESE 41 52 22 28 1016.5 - -
17/08:30am - - - - - ESE 43 50 23 27 1016.4 - -
17/08:24am - - - - - ESE 43 - 23 - - 1016.2 -
17/08:00am - - - - - ESE 41 48 22 26 1016.2 - -
17/07:30am - - - - - SE 39 50 21 27 1016.0 - -
17/07:24am - - - - - ESE 39 - 21 - - 1015.9 -
17/07:00am - - - - - SE 35 46 19 25 1015.7 - -
17/06:30am - - - - - SE 43 50 23 27 1015.4 - -
17/06:24am - - - - - SE 44 - 24 - - 1015.2 -
17/06:00am - - - - - ESE 46 54 25 29 1015.0 - -
17/05:30am - - - - - ESE 44 52 24 28 1014.8 - -
17/05:24am - - - - - ESE 41 - 22 - - 1014.7 -
17/05:00am - - - - - ESE 41 50 22 27 1014.5 - -
17/04:30am - - - - - ESE 41 46 22 25 1014.3 - -
17/04:24am - - - - - ESE 39 - 21 - - 1014.2 -
17/04:00am - - - - - SE 39 50 21 27 1014.3 - -
17/03:30am - - - - - ESE 43 50 23 27 1014.5 - -
17/03:24am - - - - - ESE 43 - 23 - - 1014.4 -
17/03:00am - - - - - SE 41 48 22 26 1014.5 - -
17/02:30am - - - - - ESE 39 44 21 24 1014.9 - -
17/02:24am - - - - - ESE 41 - 22 - - 1014.8 -
17/02:00am - - - - - SE 41 44 22 24 1015.1 - -

Other Formats:

Comma delimited format used in spreadsheet applications
http://www.bom.gov.au/fwo/IDQ60801/IDQ60801.94290.axf

JavaScript Object Notation format (JSON) in row-major order
http://www.bom.gov.au/fwo/IDQ60801/IDQ60801.94290.json